createdAt,value
2019-03-13T15:38:13.890Z,7.87
2019-03-13T15:40:43.649Z,7.67
2019-03-13T15:43:13.298Z,7.62
2019-03-13T15:45:42.936Z,7.84
2019-03-13T15:48:13.297Z,7.75
2019-03-13T15:50:43.059Z,7.71
2019-03-13T15:53:12.702Z,7.57
2019-03-13T15:55:42.343Z,7.44
2019-03-13T15:58:12.101Z,7.68
2019-03-13T16:00:41.745Z,7.71
2019-03-13T16:03:11.508Z,7.77
2019-03-13T16:05:41.275Z,7.86
2019-03-13T16:08:10.919Z,7.73
2019-03-13T16:10:40.553Z,7.81
2019-03-13T16:13:10.201Z,7.75
2019-03-13T16:15:41.270Z,8.11
2019-03-13T16:18:10.916Z,8.74
2019-03-13T16:20:40.556Z,9.03
2019-03-13T16:23:10.206Z,8.91
2019-03-13T16:25:39.846Z,8.44
2019-03-13T16:28:09.602Z,8.15
2019-03-13T16:30:38.883Z,8.01
2019-03-13T16:33:08.644Z,7.97
2019-03-13T16:35:38.284Z,7.96
2019-03-13T16:38:08.169Z,8.18
2019-03-13T16:40:38.055Z,8.13
2019-03-13T16:43:07.693Z,7.99
2019-03-13T16:45:37.335Z,8.18
2019-03-13T16:48:06.977Z,8.27
2019-03-13T16:50:38.667Z,7.98
2019-03-13T16:53:08.302Z,8.22
2019-03-13T16:55:37.945Z,8.17
2019-03-13T16:58:07.589Z,7.85
2019-03-13T17:00:37.343Z,7.67
2019-03-13T17:03:07.103Z,7.76
2019-03-13T17:05:37.000Z,7.73
2019-03-13T17:08:06.748Z,7.86
2019-03-13T17:10:36.510Z,7.73
2019-03-13T17:13:06.277Z,7.74
2019-03-13T17:15:35.917Z,7.62
2019-03-13T17:18:05.676Z,7.67
2019-03-13T17:20:41.797Z,7.76
2019-03-13T17:23:11.580Z,7.61
2019-03-13T17:25:41.198Z,7.85
2019-03-13T17:28:10.962Z,7.92
2019-03-13T17:30:40.609Z,7.91
2019-03-13T17:33:10.272Z,7.87
2019-03-13T17:35:39.880Z,7.91
2019-03-13T17:38:09.531Z,7.71
2019-03-13T17:40:39.415Z,7.99
2019-03-13T17:43:09.047Z,7.90
2019-03-13T17:45:38.817Z,7.84
2019-03-13T17:48:08.575Z,8.16
2019-03-13T17:50:38.340Z,8.07
2019-03-13T17:53:08.106Z,7.77
2019-03-13T17:55:37.741Z,7.95
2019-03-13T17:58:07.381Z,7.88
2019-03-13T18:00:39.063Z,7.81
2019-03-13T18:03:08.702Z,7.98
2019-03-13T18:05:38.464Z,7.91
2019-03-13T18:08:08.224Z,7.73
2019-03-13T18:10:37.875Z,7.81
2019-03-13T18:13:07.536Z,7.93
2019-03-13T18:15:37.147Z,7.88
2019-03-13T18:18:06.791Z,7.77
2019-03-13T18:20:36.446Z,7.86
2019-03-13T18:23:06.449Z,8.06
2019-03-13T18:25:36.197Z,8.07
2019-03-13T18:28:05.842Z,8.08
2019-03-13T18:30:36.558Z,7.95
2019-03-13T18:33:06.203Z,8.00
2019-03-13T18:35:35.845Z,7.75
2019-03-13T18:38:07.160Z,7.77
2019-03-13T18:40:36.807Z,7.84
2019-03-13T18:43:06.565Z,7.92
2019-03-13T18:45:37.768Z,7.95
2019-03-13T18:48:07.897Z,7.85
2019-03-13T18:50:37.535Z,8.07
2019-03-13T18:53:07.293Z,8.15
2019-03-13T18:55:37.782Z,7.93
2019-03-13T18:58:07.423Z,7.78
2019-03-13T19:00:38.737Z,7.82
2019-03-13T19:03:09.702Z,7.92
2019-03-13T19:05:40.060Z,7.80
2019-03-13T19:08:09.824Z,7.94
2019-03-13T19:10:39.467Z,7.86
2019-03-13T19:13:09.113Z,7.74
2019-03-13T19:15:40.275Z,7.91
2019-03-13T19:18:10.558Z,7.91
2019-03-13T19:20:40.431Z,8.04
2019-03-13T19:23:10.072Z,7.95
2019-03-13T19:25:39.718Z,7.95
2019-03-13T19:28:09.422Z,7.95
2019-03-13T19:30:39.126Z,7.93
2019-03-13T19:33:08.882Z,7.87
2019-03-13T19:35:38.524Z,7.86
2019-03-13T19:38:16.449Z,7.83
2019-03-13T19:40:46.085Z,7.84
2019-03-13T19:43:15.737Z,7.88
2019-03-13T19:45:47.535Z,7.91
2019-03-13T19:48:17.182Z,7.93
2019-03-13T19:50:47.058Z,7.97
2019-03-13T19:53:16.689Z,8.09
2019-03-13T19:55:46.336Z,7.17
2019-03-13T19:58:16.224Z,6.24
2019-03-13T20:00:45.864Z,6.22
2019-03-13T20:03:18.373Z,6.05
2019-03-13T20:05:48.273Z,6.13
2019-03-13T20:08:17.900Z,5.95
2019-03-13T20:10:47.542Z,5.96
2019-03-13T20:13:17.196Z,5.89
2019-03-13T20:15:46.946Z,5.87
2019-03-13T20:18:16.465Z,5.86
2019-03-13T20:20:46.348Z,5.83
2019-03-13T20:23:17.922Z,5.83
2019-03-13T20:25:47.923Z,5.85
2019-03-13T20:28:17.557Z,5.85
2019-03-13T20:30:47.200Z,5.83
2019-03-13T20:33:17.080Z,5.83
2019-03-13T20:35:46.720Z,5.65
2019-03-13T20:38:16.481Z,5.76
2019-03-13T20:40:46.123Z,5.73
2019-03-13T20:43:15.891Z,5.68
2019-03-13T20:45:45.529Z,5.70
2019-03-13T20:48:15.168Z,5.85
2019-03-13T20:50:44.807Z,5.96
2019-03-13T20:53:14.448Z,5.83
2019-03-13T20:55:44.580Z,5.97
2019-03-13T20:58:14.212Z,5.96
2019-03-13T21:00:43.850Z,5.97
2019-03-13T21:03:13.737Z,5.96
2019-03-13T21:05:43.621Z,5.99
2019-03-13T21:08:13.261Z,5.95
2019-03-13T21:10:42.909Z,6.09
2019-03-13T21:13:12.548Z,5.98
2019-03-13T21:15:43.697Z,5.93
2019-03-13T21:18:13.744Z,5.71
2019-03-13T21:20:43.509Z,5.95
2019-03-13T21:23:13.151Z,6.04
2019-03-13T21:25:42.789Z,5.93
2019-03-13T21:28:12.549Z,5.91
2019-03-13T21:30:42.203Z,5.96
2019-03-13T21:33:11.831Z,5.91
2019-03-13T21:35:41.485Z,5.94
2019-03-13T21:38:13.053Z,5.81
2019-03-13T21:40:42.555Z,5.83
2019-03-13T21:43:12.199Z,5.78
2019-03-13T21:45:41.891Z,6.04
2019-03-13T21:48:11.485Z,5.87
2019-03-13T21:50:41.128Z,6.08
2019-03-13T21:53:10.885Z,5.77
2019-03-13T21:55:40.529Z,5.99
2019-03-13T21:58:10.169Z,5.91
2019-03-13T22:00:39.817Z,5.74
2019-03-13T22:03:09.451Z,5.91
2019-03-13T22:05:39.220Z,5.85
2019-03-13T22:08:08.859Z,5.83
2019-03-13T22:10:38.499Z,5.89
2019-03-13T22:13:08.262Z,5.99
2019-03-13T22:15:37.899Z,5.86
2019-03-13T22:18:07.668Z,5.79
2019-03-13T22:20:37.307Z,5.72
2019-03-13T22:23:06.944Z,5.80
2019-03-13T22:25:36.588Z,5.79
2019-03-13T22:28:06.231Z,5.92
2019-03-13T22:30:35.877Z,5.85
2019-03-13T22:33:05.509Z,5.98
2019-03-13T22:35:35.158Z,5.74
2019-03-13T22:38:04.801Z,5.69
2019-03-13T22:40:34.556Z,5.81
2019-03-13T22:43:04.205Z,5.88
2019-03-13T22:45:33.856Z,5.88
2019-03-13T22:48:03.479Z,5.96
2019-03-13T22:50:33.241Z,5.81
2019-03-13T22:53:02.904Z,5.83
2019-03-13T22:55:32.768Z,5.85
2019-03-13T22:58:02.406Z,5.92
2019-03-13T23:00:51.494Z,6.06
2019-03-13T23:03:27.132Z,6.18
2019-03-13T23:05:57.015Z,6.13
2019-03-13T23:08:26.650Z,6.26
2019-03-13T23:10:56.298Z,6.26
2019-03-13T23:13:25.937Z,6.23
2019-03-13T23:15:55.578Z,6.24
2019-03-13T23:18:25.350Z,6.32
2019-03-13T23:20:54.978Z,6.47
2019-03-13T23:23:24.627Z,6.45
2019-03-13T23:25:54.325Z,6.49
2019-03-13T23:28:23.906Z,6.63
2019-03-13T23:30:53.545Z,6.60
2019-03-13T23:33:23.308Z,6.48
2019-03-13T23:35:52.953Z,6.64
2019-03-13T23:38:22.721Z,6.59
2019-03-13T23:40:52.354Z,6.49
2019-03-13T23:43:22.119Z,6.56
2019-03-13T23:45:51.755Z,6.47
2019-03-13T23:48:21.396Z,6.52
2019-03-13T23:50:51.042Z,6.58
2019-03-13T23:53:20.681Z,6.47
2019-03-13T23:55:50.446Z,6.44
2019-03-13T23:58:20.084Z,6.51
